DTTG

Gabès Matmata International Airport

Gabès, Tunisia
METAR DTTG 172000Z 23009KT 8000 FEW020 SCT030 24/13 Q1005 NOSIG
Observed Flight Rules
Oct-17 @ 20:00 UTC (an hour ago) Marginal Visual Flight Rules
Wind Visibility Clouds
230° at 9 knots 7,998 meters
  • Few at 2,000' AGL
  • Scattered at 3,000' AGL
Temperatures Readings
Current 24°C / 75°F
Dewpoint 13°C / 55°F
Humidity 50%
Altimeter 29.68" Hg
Pressure 1005 hPa
Elevation 5
METAR DTTG 172000Z 23009KT 8000 FEW020 SCT030 24/13 Q1005 NOSIG
Observed Flight Rules
Oct-17 @ 20:00 UTC
(an hour ago)
MVFR
Wind Visibility
230° at 9 knots 7,998 meters
Clouds
  • Few at 2,000' AGL
  • Scattered at 3,000' AGL
Temperature Dewpoint
24°C / 75°F 13°C / 55°F
Humidity Altimeter Pressure
50% 29.68" Hg 1005 hPa